sensor_id;sensor_type;location;lat;lon;timestamp;pressure;altitude;pressure_sealevel;temperature;humidity
59417;BME280;45222;52.458;20.914;2023-03-23T00:02:47;100030.93;;;6.80;82.76
59417;BME280;45222;52.458;20.914;2023-03-23T00:06:32;100033.05;;;6.76;83.09
59417;BME280;45222;52.458;20.914;2023-03-23T00:10:19;100025.21;;;6.77;83.16
59417;BME280;45222;52.458;20.914;2023-03-23T00:14:04;100023.46;;;6.77;83.01
59417;BME280;45222;52.458;20.914;2023-03-23T00:17:49;100019.19;;;6.73;82.98
59417;BME280;45222;52.458;20.914;2023-03-23T00:21:37;100021.40;;;6.70;83.13
59417;BME280;45222;52.458;20.914;2023-03-23T00:25:22;100014.91;;;6.69;83.29
59417;BME280;45222;52.458;20.914;2023-03-23T00:29:10;100014.74;;;6.74;83.46
59417;BME280;45222;52.458;20.914;2023-03-23T00:32:58;100012.27;;;6.78;83.45
59417;BME280;45222;52.458;20.914;2023-03-23T00:36:42;100005.63;;;6.81;83.21
59417;BME280;45222;52.458;20.914;2023-03-23T00:40:29;100003.48;;;6.82;82.95
59417;BME280;45222;52.458;20.914;2023-03-23T00:44:14;99998.12;;;6.78;82.90
59417;BME280;45222;52.458;20.914;2023-03-23T00:48:01;99998.43;;;6.75;83.02
59417;BME280;45222;52.458;20.914;2023-03-23T00:51:47;99997.20;;;6.70;83.46
59417;BME280;45222;52.458;20.914;2023-03-23T00:55:32;99997.23;;;6.65;83.67
59417;BME280;45222;52.458;20.914;2023-03-23T00:59:18;99993.48;;;6.66;83.71
59417;BME280;45222;52.458;20.914;2023-03-23T01:03:04;99988.17;;;6.70;83.70
59417;BME280;45222;52.458;20.914;2023-03-23T01:06:50;99983.48;;;6.73;83.46
59417;BME280;45222;52.458;20.914;2023-03-23T01:10:36;99979.05;;;6.74;83.48
59417;BME280;45222;52.458;20.914;2023-03-23T01:14:23;99978.23;;;6.77;83.64
59417;BME280;45222;52.458;20.914;2023-03-23T01:18:08;99973.44;;;6.77;83.54
59417;BME280;45222;52.458;20.914;2023-03-23T01:21:53;99983.69;;;6.72;83.45
59417;BME280;45222;52.458;20.914;2023-03-23T01:25:39;99985.10;;;6.68;83.26
59417;BME280;45222;52.458;20.914;2023-03-23T01:29:25;99982.47;;;6.67;83.55
59417;BME280;45222;52.458;20.914;2023-03-23T01:33:10;99983.64;;;6.69;83.76
59417;BME280;45222;52.458;20.914;2023-03-23T01:36:55;99977.52;;;6.72;83.92
59417;BME280;45222;52.458;20.914;2023-03-23T01:40:40;99972.01;;;6.73;83.85
59417;BME280;45222;52.458;20.914;2023-03-23T01:48:46;99965.98;;;6.68;83.98
59417;BME280;45222;52.458;20.914;2023-03-23T01:52:31;99959.13;;;6.68;84.17
59417;BME280;45222;52.458;20.914;2023-03-23T01:56:21;99956.26;;;6.68;84.32
59417;BME280;45222;52.458;20.914;2023-03-23T02:00:11;99955.55;;;6.73;84.71
59417;BME280;45222;52.458;20.914;2023-03-23T02:03:59;99949.88;;;6.79;84.69
59417;BME280;45222;52.458;20.914;2023-03-23T02:07:45;99941.05;;;6.83;84.86
59417;BME280;45222;52.458;20.914;2023-03-23T02:11:31;99939.65;;;6.82;84.42
59417;BME280;45222;52.458;20.914;2023-03-23T02:15:16;99936.88;;;6.82;84.62
59417;BME280;45222;52.458;20.914;2023-03-23T02:19:12;99938.41;;;6.82;84.88
59417;BME280;45222;52.458;20.914;2023-03-23T02:23:47;99933.24;;;6.88;84.88
59417;BME280;45222;52.458;20.914;2023-03-23T02:28:10;99929.23;;;6.91;84.86
59417;BME280;45222;52.458;20.914;2023-03-23T02:32:19;99921.85;;;6.90;84.78
59417;BME280;45222;52.458;20.914;2023-03-23T02:36:13;99917.39;;;6.91;84.72
59417;BME280;45222;52.458;20.914;2023-03-23T02:40:04;99916.91;;;6.90;85.22
59417;BME280;45222;52.458;20.914;2023-03-23T02:43:52;99916.89;;;6.91;85.21
59417;BME280;45222;52.458;20.914;2023-03-23T02:47:39;99930.82;;;6.91;85.15
59417;BME280;45222;52.458;20.914;2023-03-23T02:51:27;99928.89;;;6.91;85.05
59417;BME280;45222;52.458;20.914;2023-03-23T02:55:14;99922.98;;;6.93;85.29
59417;BME280;45222;52.458;20.914;2023-03-23T02:59:00;99919.23;;;6.98;85.62
59417;BME280;45222;52.458;20.914;2023-03-23T03:02:46;99922.56;;;7.07;85.50
59417;BME280;45222;52.458;20.914;2023-03-23T03:06:44;99925.04;;;7.16;85.72
59417;BME280;45222;52.458;20.914;2023-03-23T03:10:36;99922.59;;;7.24;85.65
59417;BME280;45222;52.458;20.914;2023-03-23T03:14:26;99922.42;;;7.28;85.57
59417;BME280;45222;52.458;20.914;2023-03-23T03:18:16;99928.44;;;7.28;85.31
59417;BME280;45222;52.458;20.914;2023-03-23T03:22:02;99931.77;;;7.29;85.37
59417;BME280;45222;52.458;20.914;2023-03-23T03:25:50;99935.83;;;7.29;85.50
59417;BME280;45222;52.458;20.914;2023-03-23T03:29:37;99932.66;;;7.32;85.37
59417;BME280;45222;52.458;20.914;2023-03-23T03:33:26;99935.41;;;7.35;85.26
59417;BME280;45222;52.458;20.914;2023-03-23T03:37:15;99933.36;;;7.33;85.20
59417;BME280;45222;52.458;20.914;2023-03-23T03:41:01;99926.56;;;7.30;84.97
59417;BME280;45222;52.458;20.914;2023-03-23T03:44:46;99923.96;;;7.29;85.02
59417;BME280;45222;52.458;20.914;2023-03-23T03:48:31;99922.91;;;7.29;85.08
59417;BME280;45222;52.458;20.914;2023-03-23T03:52:16;99919.59;;;7.28;85.16
59417;BME280;45222;52.458;20.914;2023-03-23T03:56:05;99919.39;;;7.29;85.21
59417;BME280;45222;52.458;20.914;2023-03-23T03:59:51;99922.75;;;7.29;85.06
59417;BME280;45222;52.458;20.914;2023-03-23T04:03:37;99914.23;;;7.25;84.72
59417;BME280;45222;52.458;20.914;2023-03-23T04:07:23;99907.42;;;7.22;84.86
59417;BME280;45222;52.458;20.914;2023-03-23T04:11:11;99910.99;;;7.22;85.16
59417;BME280;45222;52.458;20.914;2023-03-23T04:14:57;99914.00;;;7.26;85.40
59417;BME280;45222;52.458;20.914;2023-03-23T04:18:42;99912.13;;;7.33;85.58
59417;BME280;45222;52.458;20.914;2023-03-23T04:22:28;99906.77;;;7.38;85.36
59417;BME280;45222;52.458;20.914;2023-03-23T04:26:14;99910.66;;;7.42;85.27
59417;BME280;45222;52.458;20.914;2023-03-23T04:30:00;99912.60;;;7.42;84.95
59417;BME280;45222;52.458;20.914;2023-03-23T04:33:45;99906.21;;;7.43;84.79
59417;BME280;45222;52.458;20.914;2023-03-23T04:37:31;99903.94;;;7.42;84.98
59417;BME280;45222;52.458;20.914;2023-03-23T04:41:16;99908.27;;;7.45;85.06
59417;BME280;45222;52.458;20.914;2023-03-23T04:45:01;99908.98;;;7.45;84.81
59417;BME280;45222;52.458;20.914;2023-03-23T04:48:47;99905.73;;;7.42;84.65
59417;BME280;45222;52.458;20.914;2023-03-23T04:52:33;99893.00;;;7.37;84.37
59417;BME280;45222;52.458;20.914;2023-03-23T04:56:18;99898.30;;;7.34;84.63
59417;BME280;45222;52.458;20.914;2023-03-23T05:00:05;99898.80;;;7.35;84.72
59417;BME280;45222;52.458;20.914;2023-03-23T05:03:53;99901.27;;;7.39;84.93
59417;BME280;45222;52.458;20.914;2023-03-23T05:07:38;99896.65;;;7.43;84.85
59417;BME280;45222;52.458;20.914;2023-03-23T05:11:24;99893.95;;;7.45;84.77
59417;BME280;45222;52.458;20.914;2023-03-23T05:15:11;99893.75;;;7.49;84.51
59417;BME280;45222;52.458;20.914;2023-03-23T05:18:57;99894.59;;;7.54;84.53
59417;BME280;45222;52.458;20.914;2023-03-23T05:22:42;99900.83;;;7.58;84.75
59417;BME280;45222;52.458;20.914;2023-03-23T05:26:28;99900.23;;;7.66;85.05
59417;BME280;45222;52.458;20.914;2023-03-23T05:30:14;99900.90;;;7.76;85.05
59417;BME280;45222;52.458;20.914;2023-03-23T05:34:00;99901.99;;;7.83;84.91
59417;BME280;45222;52.458;20.914;2023-03-23T05:37:46;99902.95;;;7.89;84.76
59417;BME280;45222;52.458;20.914;2023-03-23T05:41:31;99901.11;;;7.99;84.76
59417;BME280;45222;52.458;20.914;2023-03-23T05:45:18;99902.74;;;8.10;84.66
59417;BME280;45222;52.458;20.914;2023-03-23T05:49:03;99900.55;;;8.23;84.56
59417;BME280;45222;52.458;20.914;2023-03-23T05:52:48;99896.09;;;8.35;84.44
59417;BME280;45222;52.458;20.914;2023-03-23T05:56:34;99893.92;;;8.47;84.47
59417;BME280;45222;52.458;20.914;2023-03-23T06:00:21;99895.96;;;8.57;84.09
59417;BME280;45222;52.458;20.914;2023-03-23T06:04:07;99902.45;;;8.63;83.69
59417;BME280;45222;52.458;20.914;2023-03-23T06:07:53;99906.42;;;8.68;83.35
59417;BME280;45222;52.458;20.914;2023-03-23T06:11:38;99910.48;;;8.76;83.40
59417;BME280;45222;52.458;20.914;2023-03-23T06:15:23;99911.71;;;8.84;83.16
59417;BME280;45222;52.458;20.914;2023-03-23T06:19:09;99906.84;;;8.90;82.95
59417;BME280;45222;52.458;20.914;2023-03-23T06:22:55;99905.34;;;8.98;82.68
59417;BME280;45222;52.458;20.914;2023-03-23T06:26:41;99899.93;;;9.04;82.26
59417;BME280;45222;52.458;20.914;2023-03-23T06:30:26;99894.91;;;9.08;81.67
59417;BME280;45222;52.458;20.914;2023-03-23T06:34:13;99897.38;;;9.12;81.52
59417;BME280;45222;52.458;20.914;2023-03-23T06:38:01;99899.39;;;9.18;81.84
59417;BME280;45222;52.458;20.914;2023-03-23T06:41:47;99905.11;;;9.28;81.86
59417;BME280;45222;52.458;20.914;2023-03-23T06:45:32;99904.93;;;9.35;81.31
59417;BME280;45222;52.458;20.914;2023-03-23T06:49:17;99905.16;;;9.41;80.96
59417;BME280;45222;52.458;20.914;2023-03-23T06:53:03;99903.11;;;9.47;80.66
59417;BME280;45222;52.458;20.914;2023-03-23T06:56:48;99910.10;;;9.55;80.78
59417;BME280;45222;52.458;20.914;2023-03-23T07:00:34;99910.45;;;9.66;80.62
59417;BME280;45222;52.458;20.914;2023-03-23T07:04:19;99910.58;;;9.77;80.12
59417;BME280;45222;52.458;20.914;2023-03-23T07:08:05;99911.45;;;9.88;79.73
59417;BME280;45222;52.458;20.914;2023-03-23T07:11:50;99915.06;;;10.00;79.34
59417;BME280;45222;52.458;20.914;2023-03-23T07:15:36;99920.86;;;10.14;79.24
59417;BME280;45222;52.458;20.914;2023-03-23T07:19:21;99923.25;;;10.33;78.87
59417;BME280;45222;52.458;20.914;2023-03-23T07:23:07;99927.77;;;10.52;78.57
59417;BME280;45222;52.458;20.914;2023-03-23T07:26:52;99927.16;;;10.69;77.93
59417;BME280;45222;52.458;20.914;2023-03-23T07:30:38;99927.83;;;10.82;77.35
59417;BME280;45222;52.458;20.914;2023-03-23T07:34:23;99926.80;;;10.98;76.43
59417;BME280;45222;52.458;20.914;2023-03-23T07:38:08;99922.78;;;11.18;75.99
59417;BME280;45222;52.458;20.914;2023-03-23T07:41:54;99918.08;;;11.38;75.54
59417;BME280;45222;52.458;20.914;2023-03-23T07:45:43;99916.33;;;11.58;74.60
59417;BME280;45222;52.458;20.914;2023-03-23T07:49:32;99913.17;;;11.81;73.51
59417;BME280;45222;52.458;20.914;2023-03-23T07:53:18;99910.23;;;12.09;72.95
59417;BME280;45222;52.458;20.914;2023-03-23T07:57:03;99906.69;;;12.46;71.78
59417;BME280;45222;52.458;20.914;2023-03-23T08:00:49;99904.27;;;12.89;70.93
59417;BME280;45222;52.458;20.914;2023-03-23T08:04:34;99897.58;;;13.18;69.67
59417;BME280;45222;52.458;20.914;2023-03-23T08:08:21;99894.96;;;13.38;68.40
59417;BME280;45222;52.458;20.914;2023-03-23T08:12:07;99887.06;;;13.55;67.47
59417;BME280;45222;52.458;20.914;2023-03-23T08:15:52;99879.82;;;13.72;67.16
59417;BME280;45222;52.458;20.914;2023-03-23T08:19:38;99870.73;;;13.87;66.58
59417;BME280;45222;52.458;20.914;2023-03-23T08:23:23;99867.87;;;14.03;65.61
59417;BME280;45222;52.458;20.914;2023-03-23T08:27:08;99854.63;;;14.15;65.48
59417;BME280;45222;52.458;20.914;2023-03-23T08:30:53;99848.69;;;14.23;64.31
59417;BME280;45222;52.458;20.914;2023-03-23T08:34:39;99852.48;;;14.30;64.33
59417;BME280;45222;52.458;20.914;2023-03-23T08:38:24;99855.64;;;14.39;63.60
59417;BME280;45222;52.458;20.914;2023-03-23T08:42:09;99859.01;;;14.49;63.46
59417;BME280;45222;52.458;20.914;2023-03-23T08:45:54;99861.10;;;14.55;63.23
59417;BME280;45222;52.458;20.914;2023-03-23T08:49:40;99862.02;;;14.54;62.55
59417;BME280;45222;52.458;20.914;2023-03-23T08:53:26;99861.95;;;14.50;62.27
59417;BME280;45222;52.458;20.914;2023-03-23T08:57:14;99867.31;;;14.50;62.43
59417;BME280;45222;52.458;20.914;2023-03-23T09:01:00;99872.71;;;14.47;62.33
59417;BME280;45222;52.458;20.914;2023-03-23T09:04:45;99871.80;;;14.45;62.42
59417;BME280;45222;52.458;20.914;2023-03-23T09:08:30;99865.80;;;14.46;62.39
59417;BME280;45222;52.458;20.914;2023-03-23T09:12:16;99866.65;;;14.52;61.77
59417;BME280;45222;52.458;20.914;2023-03-23T09:16:01;99871.13;;;14.57;61.60
59417;BME280;45222;52.458;20.914;2023-03-23T09:19:46;99869.06;;;14.58;61.46
59417;BME280;45222;52.458;20.914;2023-03-23T09:23:31;99869.02;;;14.61;61.28
59417;BME280;45222;52.458;20.914;2023-03-23T09:27:17;99867.48;;;14.65;61.23
59417;BME280;45222;52.458;20.914;2023-03-23T09:31:03;99858.39;;;14.69;60.40
59417;BME280;45222;52.458;20.914;2023-03-23T09:34:49;99852.38;;;14.76;60.87
59417;BME280;45222;52.458;20.914;2023-03-23T09:38:35;99851.74;;;14.87;60.09
59417;BME280;45222;52.458;20.914;2023-03-23T09:42:33;99841.06;;;14.98;60.23
59417;BME280;45222;52.458;20.914;2023-03-23T09:46:37;99830.39;;;15.12;59.55
59417;BME280;45222;52.458;20.914;2023-03-23T09:50:28;99825.02;;;15.31;59.06
59417;BME280;45222;52.458;20.914;2023-03-23T09:54:21;99824.96;;;15.47;58.65
59417;BME280;45222;52.458;20.914;2023-03-23T09:58:14;99823.12;;;15.62;58.17
59417;BME280;45222;52.458;20.914;2023-03-23T10:02:12;99821.30;;;15.88;58.24
59417;BME280;45222;52.458;20.914;2023-03-23T10:05:58;99819.52;;;16.11;56.83
59417;BME280;45222;52.458;20.914;2023-03-23T10:09:46;99813.20;;;16.29;55.97
59417;BME280;45222;52.458;20.914;2023-03-23T10:13:46;99809.06;;;16.47;55.11
59417;BME280;45222;52.458;20.914;2023-03-23T10:17:39;99804.23;;;16.58;54.82
59417;BME280;45222;52.458;20.914;2023-03-23T10:21:27;99803.13;;;16.82;53.66
59417;BME280;45222;52.458;20.914;2023-03-23T10:25:18;99795.52;;;17.11;53.48
59417;BME280;45222;52.458;20.914;2023-03-23T10:29:14;99788.23;;;17.23;51.17
59417;BME280;45222;52.458;20.914;2023-03-23T10:33:04;99775.88;;;17.38;51.15
59417;BME280;45222;52.458;20.914;2023-03-23T10:36:59;99777.36;;;17.49;48.92
59417;BME280;45222;52.458;20.914;2023-03-23T10:41:09;99771.56;;;17.55;48.21
59417;BME280;45222;52.458;20.914;2023-03-23T10:44:58;99777.93;;;17.71;47.73
59417;BME280;45222;52.458;20.914;2023-03-23T10:48:44;99779.48;;;17.88;48.49
59417;BME280;45222;52.458;20.914;2023-03-23T10:52:35;99779.51;;;18.17;48.01
59417;BME280;45222;52.458;20.914;2023-03-23T10:56:24;99775.10;;;18.44;48.16
59417;BME280;45222;52.458;20.914;2023-03-23T11:00:20;99769.55;;;18.63;47.04
59417;BME280;45222;52.458;20.914;2023-03-23T11:04:12;99764.52;;;18.69;46.47
59417;BME280;45222;52.458;20.914;2023-03-23T11:07:59;99761.96;;;18.69;46.22
59417;BME280;45222;52.458;20.914;2023-03-23T11:11:51;99760.45;;;18.76;45.62
59417;BME280;45222;52.458;20.914;2023-03-23T11:15:39;99750.70;;;18.96;45.07
59417;BME280;45222;52.458;20.914;2023-03-23T11:19:27;99745.29;;;19.23;45.08
59417;BME280;45222;52.458;20.914;2023-03-23T11:23:24;99735.88;;;19.39;44.64
59417;BME280;45222;52.458;20.914;2023-03-23T11:27:10;99728.90;;;19.31;44.36
59417;BME280;45222;52.458;20.914;2023-03-23T11:30:56;99724.43;;;19.07;44.20
59417;BME280;45222;52.458;20.914;2023-03-23T11:34:43;99725.45;;;18.90;44.03
59417;BME280;45222;52.458;20.914;2023-03-23T11:38:34;99722.32;;;18.91;44.60
59417;BME280;45222;52.458;20.914;2023-03-23T11:42:21;99712.67;;;19.04;45.05
59417;BME280;45222;52.458;20.914;2023-03-23T11:46:22;99704.58;;;19.32;44.65
59417;BME280;45222;52.458;20.914;2023-03-23T11:50:18;99702.10;;;19.64;44.01
59417;BME280;45222;52.458;20.914;2023-03-23T11:54:15;99706.13;;;19.97;42.59
59417;BME280;45222;52.458;20.914;2023-03-23T11:58:10;99693.94;;;20.00;41.91
59417;BME280;45222;52.458;20.914;2023-03-23T12:01:59;99693.40;;;20.09;42.31
59417;BME280;45222;52.458;20.914;2023-03-23T12:05:51;99683.87;;;20.30;41.99
59417;BME280;45222;52.458;20.914;2023-03-23T12:09:45;99679.48;;;20.45;41.43
59417;BME280;45222;52.458;20.914;2023-03-23T12:13:45;99673.46;;;20.28;40.90
59417;BME280;45222;52.458;20.914;2023-03-23T12:17:44;99667.09;;;20.25;41.31
59417;BME280;45222;52.458;20.914;2023-03-23T12:21:38;99665.55;;;20.28;40.70
59417;BME280;45222;52.458;20.914;2023-03-23T12:25:46;99661.47;;;20.27;40.88
59417;BME280;45222;52.458;20.914;2023-03-23T12:29:48;99658.27;;;20.41;40.96
59417;BME280;45222;52.458;20.914;2023-03-23T12:33:47;99659.48;;;20.54;40.76
59417;BME280;45222;52.458;20.914;2023-03-23T12:37:45;99664.90;;;20.66;40.64
59417;BME280;45222;52.458;20.914;2023-03-23T12:41:38;99665.86;;;20.85;40.15
59417;BME280;45222;52.458;20.914;2023-03-23T12:45:49;99664.18;;;20.82;40.21
59417;BME280;45222;52.458;20.914;2023-03-23T12:49:39;99658.73;;;20.29;40.53
59417;BME280;45222;52.458;20.914;2023-03-23T12:53:29;99661.95;;;19.72;41.67
59417;BME280;45222;52.458;20.914;2023-03-23T12:57:20;99662.30;;;19.30;42.41
59417;BME280;45222;52.458;20.914;2023-03-23T13:01:11;99663.97;;;18.94;43.17
59417;BME280;45222;52.458;20.914;2023-03-23T13:05:02;99655.78;;;18.69;43.24
59417;BME280;45222;52.458;20.914;2023-03-23T13:08:52;99664.42;;;18.51;43.00
59417;BME280;45222;52.458;20.914;2023-03-23T13:12:39;99661.02;;;18.41;43.55
59417;BME280;45222;52.458;20.914;2023-03-23T13:16:34;99661.26;;;18.33;43.68
59417;BME280;45222;52.458;20.914;2023-03-23T13:20:52;99654.93;;;18.25;43.12
59417;BME280;45222;52.458;20.914;2023-03-23T13:24:46;99665.21;;;18.17;43.16
59417;BME280;45222;52.458;20.914;2023-03-23T13:28:49;99666.36;;;18.08;42.70
59417;BME280;45222;52.458;20.914;2023-03-23T13:32:38;99664.70;;;17.96;42.75
59417;BME280;45222;52.458;20.914;2023-03-23T13:36:30;99671.12;;;17.87;43.20
59417;BME280;45222;52.458;20.914;2023-03-23T13:40:25;99675.69;;;17.80;43.52
59417;BME280;45222;52.458;20.914;2023-03-23T13:44:22;99676.16;;;17.75;43.57
59417;BME280;45222;52.458;20.914;2023-03-23T13:48:20;99674.82;;;17.70;43.71
59417;BME280;45222;52.458;20.914;2023-03-23T13:52:21;99681.05;;;17.66;44.44
59417;BME280;45222;52.458;20.914;2023-03-23T13:56:15;99686.27;;;17.60;44.95
59417;BME280;45222;52.458;20.914;2023-03-23T14:00:24;99690.02;;;17.50;45.55
59417;BME280;45222;52.458;20.914;2023-03-23T14:04:16;99704.91;;;17.36;45.95
59417;BME280;45222;52.458;20.914;2023-03-23T14:08:10;99708.17;;;17.22;46.37
59417;BME280;45222;52.458;20.914;2023-03-23T14:11:57;99712.21;;;17.10;46.59
59417;BME280;45222;52.458;20.914;2023-03-23T14:15:53;99716.20;;;16.97;46.91
59417;BME280;45222;52.458;20.914;2023-03-23T14:19:40;99716.68;;;16.83;47.18
59417;BME280;45222;52.458;20.914;2023-03-23T14:23:27;99720.18;;;16.71;47.64
59417;BME280;45222;52.458;20.914;2023-03-23T14:27:16;99724.73;;;16.59;48.15
59417;BME280;45222;52.458;20.914;2023-03-23T14:31:02;99732.09;;;16.46;48.47
59417;BME280;45222;52.458;20.914;2023-03-23T14:34:48;99736.44;;;16.35;48.53
59417;BME280;45222;52.458;20.914;2023-03-23T14:38:35;99742.93;;;16.26;48.94
59417;BME280;45222;52.458;20.914;2023-03-23T14:42:26;99743.20;;;16.18;49.40
59417;BME280;45222;52.458;20.914;2023-03-23T14:46:13;99744.20;;;16.10;49.87
59417;BME280;45222;52.458;20.914;2023-03-23T14:50:03;99742.21;;;16.04;50.42
59417;BME280;45222;52.458;20.914;2023-03-23T14:53:53;99749.56;;;15.97;50.53
59417;BME280;45222;52.458;20.914;2023-03-23T14:57:41;99750.67;;;15.90;51.24
59417;BME280;45222;52.458;20.914;2023-03-23T15:01:28;99751.73;;;15.83;51.36
59417;BME280;45222;52.458;20.914;2023-03-23T15:05:17;99754.97;;;15.76;51.71
59417;BME280;45222;52.458;20.914;2023-03-23T15:09:09;99756.17;;;15.70;51.94
59417;BME280;45222;52.458;20.914;2023-03-23T15:12:55;99758.87;;;15.63;52.01
59417;BME280;45222;52.458;20.914;2023-03-23T15:16:46;99759.34;;;15.58;52.08
59417;BME280;45222;52.458;20.914;2023-03-23T15:20:45;99756.98;;;15.51;52.22
59417;BME280;45222;52.458;20.914;2023-03-23T15:24:34;99760.06;;;15.44;52.33
59417;BME280;45222;52.458;20.914;2023-03-23T15:28:28;99762.56;;;15.37;52.45
59417;BME280;45222;52.458;20.914;2023-03-23T15:32:21;99767.09;;;15.29;52.81
59417;BME280;45222;52.458;20.914;2023-03-23T15:36:14;99771.50;;;15.21;53.41
59417;BME280;45222;52.458;20.914;2023-03-23T15:40:01;99775.86;;;15.11;54.03
59417;BME280;45222;52.458;20.914;2023-03-23T15:43:51;99777.67;;;14.98;54.40
59417;BME280;45222;52.458;20.914;2023-03-23T15:47:47;99774.77;;;14.89;54.58
59417;BME280;45222;52.458;20.914;2023-03-23T15:51:38;99782.45;;;14.83;54.85
59417;BME280;45222;52.458;20.914;2023-03-23T15:55:25;99790.92;;;14.77;55.12
59417;BME280;45222;52.458;20.914;2023-03-23T15:59:11;99797.21;;;14.71;55.50
59417;BME280;45222;52.458;20.914;2023-03-23T16:02:58;99807.92;;;14.65;55.71
59417;BME280;45222;52.458;20.914;2023-03-23T16:06:45;99815.80;;;14.57;56.28
59417;BME280;45222;52.458;20.914;2023-03-23T16:10:30;99819.65;;;14.49;56.88
59417;BME280;45222;52.458;20.914;2023-03-23T16:14:15;99823.07;;;14.39;57.72
59417;BME280;45222;52.458;20.914;2023-03-23T16:18:00;99826.77;;;14.27;58.53
59417;BME280;45222;52.458;20.914;2023-03-23T16:21:45;99832.38;;;14.14;59.12
59417;BME280;45222;52.458;20.914;2023-03-23T16:25:30;99834.71;;;13.99;60.00
59417;BME280;45222;52.458;20.914;2023-03-23T16:29:16;99836.37;;;13.83;60.51
59417;BME280;45222;52.458;20.914;2023-03-23T16:33:01;99835.86;;;13.69;61.04
59417;BME280;45222;52.458;20.914;2023-03-23T16:36:47;99840.48;;;13.57;61.31
59417;BME280;45222;52.458;20.914;2023-03-23T16:40:32;99846.25;;;13.46;61.76
59417;BME280;45222;52.458;20.914;2023-03-23T16:44:17;99844.79;;;13.35;62.13
59417;BME280;45222;52.458;20.914;2023-03-23T16:48:03;99844.16;;;13.26;62.48
59417;BME280;45222;52.458;20.914;2023-03-23T16:51:48;99846.70;;;13.17;62.87
59417;BME280;45222;52.458;20.914;2023-03-23T16:55:34;99844.78;;;13.09;63.54
59417;BME280;45222;52.458;20.914;2023-03-23T16:59:20;99849.31;;;13.03;64.00
59417;BME280;45222;52.458;20.914;2023-03-23T17:03:05;99856.52;;;12.98;64.85
59417;BME280;45222;52.458;20.914;2023-03-23T17:06:50;99866.27;;;12.94;65.11
59417;BME280;45222;52.458;20.914;2023-03-23T17:10:37;99866.02;;;12.90;64.97
59417;BME280;45222;52.458;20.914;2023-03-23T17:14:23;99861.09;;;12.84;65.59
59417;BME280;45222;52.458;20.914;2023-03-23T17:18:08;99852.77;;;12.77;65.81
59417;BME280;45222;52.458;20.914;2023-03-23T17:21:53;99847.73;;;12.70;66.03
59417;BME280;45222;52.458;20.914;2023-03-23T17:25:42;99853.42;;;12.62;66.50
59417;BME280;45222;52.458;20.914;2023-03-23T17:29:26;99856.11;;;12.58;66.99
59417;BME280;45222;52.458;20.914;2023-03-23T17:33:13;99863.77;;;12.53;67.16
59417;BME280;45222;52.458;20.914;2023-03-23T17:36:58;99881.22;;;12.54;67.79
59417;BME280;45222;52.458;20.914;2023-03-23T17:40:43;99885.48;;;12.54;68.06
59417;BME280;45222;52.458;20.914;2023-03-23T17:44:28;99891.23;;;12.54;68.15
59417;BME280;45222;52.458;20.914;2023-03-23T17:48:14;99895.59;;;12.52;68.24
59417;BME280;45222;52.458;20.914;2023-03-23T17:51:59;99900.28;;;12.49;68.46
59417;BME280;45222;52.458;20.914;2023-03-23T17:55:44;99896.91;;;12.43;68.72
59417;BME280;45222;52.458;20.914;2023-03-23T17:59:31;99893.51;;;12.34;68.92
59417;BME280;45222;52.458;20.914;2023-03-23T18:03:16;99901.32;;;12.27;69.09
59417;BME280;45222;52.458;20.914;2023-03-23T18:07:01;99907.11;;;12.19;69.70
59417;BME280;45222;52.458;20.914;2023-03-23T18:10:48;99901.55;;;12.14;69.97
59417;BME280;45222;52.458;20.914;2023-03-23T18:14:33;99896.40;;;12.11;70.20
59417;BME280;45222;52.458;20.914;2023-03-23T18:18:19;99898.96;;;12.07;70.28
59417;BME280;45222;52.458;20.914;2023-03-23T18:22:04;99899.92;;;12.03;70.42
59417;BME280;45222;52.458;20.914;2023-03-23T18:25:49;99901.05;;;11.99;70.17
59417;BME280;45222;52.458;20.914;2023-03-23T18:29:37;99903.20;;;11.93;70.31
59417;BME280;45222;52.458;20.914;2023-03-23T18:33:22;99903.82;;;11.88;70.66
59417;BME280;45222;52.458;20.914;2023-03-23T18:37:09;99901.56;;;11.87;70.84
59417;BME280;45222;52.458;20.914;2023-03-23T18:40:57;99897.44;;;11.88;71.14
59417;BME280;45222;52.458;20.914;2023-03-23T18:44:45;99899.79;;;11.91;71.10
59417;BME280;45222;52.458;20.914;2023-03-23T18:48:30;99900.39;;;11.92;71.03
59417;BME280;45222;52.458;20.914;2023-03-23T18:52:15;99896.90;;;11.91;70.77
59417;BME280;45222;52.458;20.914;2023-03-23T18:56:07;99897.73;;;11.89;70.94
59417;BME280;45222;52.458;20.914;2023-03-23T18:59:52;99897.33;;;11.90;70.99
59417;BME280;45222;52.458;20.914;2023-03-23T19:03:37;99887.83;;;11.91;71.17
59417;BME280;45222;52.458;20.914;2023-03-23T19:07:23;99887.23;;;11.92;71.22
59417;BME280;45222;52.458;20.914;2023-03-23T19:11:09;99876.42;;;11.91;71.21
59417;BME280;45222;52.458;20.914;2023-03-23T19:14:55;99874.95;;;11.88;71.03
59417;BME280;45222;52.458;20.914;2023-03-23T19:18:40;99881.01;;;11.86;70.85
59417;BME280;45222;52.458;20.914;2023-03-23T19:22:25;99892.62;;;11.82;70.94
59417;BME280;45222;52.458;20.914;2023-03-23T19:26:18;99898.60;;;11.80;71.22
59417;BME280;45222;52.458;20.914;2023-03-23T19:30:07;99891.02;;;11.82;71.45
59417;BME280;45222;52.458;20.914;2023-03-23T19:33:53;99892.90;;;11.84;71.27
59417;BME280;45222;52.458;20.914;2023-03-23T19:37:39;99893.75;;;11.84;71.09
59417;BME280;45222;52.458;20.914;2023-03-23T19:41:25;99894.41;;;11.82;71.00
59417;BME280;45222;52.458;20.914;2023-03-23T19:45:11;99886.86;;;11.80;71.02
59417;BME280;45222;52.458;20.914;2023-03-23T19:48:58;99881.77;;;11.79;70.77
59417;BME280;45222;52.458;20.914;2023-03-23T19:52:44;99874.13;;;11.78;70.85
59417;BME280;45222;52.458;20.914;2023-03-23T19:56:32;99878.92;;;11.79;71.01
59417;BME280;45222;52.458;20.914;2023-03-23T20:00:18;99868.23;;;11.76;70.96
59417;BME280;45222;52.458;20.914;2023-03-23T20:04:03;99859.55;;;11.69;70.84